createdAt,value
2018-06-29T00:00:53.566Z,101246.00
2018-06-29T00:03:23.781Z,101241.00
2018-06-29T00:05:54.055Z,101231.00
2018-06-29T00:08:24.228Z,101242.00
2018-06-29T00:10:54.304Z,101239.00
2018-06-29T00:13:24.549Z,101240.00
2018-06-29T00:15:54.822Z,101233.00
2018-06-29T00:18:24.771Z,101231.00
2018-06-29T00:20:54.806Z,101237.00
2018-06-29T00:23:25.895Z,101233.00
2018-06-29T00:25:57.103Z,101232.00
2018-06-29T00:28:27.770Z,101237.00
2018-06-29T00:30:59.383Z,101229.00
2018-06-29T00:33:30.065Z,101227.00
2018-06-29T00:36:01.123Z,101227.00
2018-06-29T00:40:30.928Z,101230.00
2018-06-29T00:43:01.215Z,101229.00
2018-06-29T00:45:31.408Z,101225.00
2018-06-29T00:48:01.921Z,101225.00
2018-06-29T00:50:32.075Z,101225.00
2018-06-29T00:53:02.430Z,101223.00
2018-06-29T00:55:32.449Z,101211.00
2018-06-29T00:58:02.401Z,101212.00
2018-06-29T01:00:32.784Z,101212.00
2018-06-29T01:03:03.016Z,101217.00
2018-06-29T01:05:33.482Z,101219.00
2018-06-29T01:08:03.504Z,101222.00
2018-06-29T01:10:33.688Z,101221.00
2018-06-29T01:13:03.863Z,101216.00
2018-06-29T01:15:34.168Z,101219.00
2018-06-29T01:18:04.408Z,101220.00
2018-06-29T01:20:34.444Z,101221.00
2018-06-29T01:23:04.610Z,101223.00
2018-06-29T01:25:34.923Z,101222.00
2018-06-29T01:28:05.116Z,101222.00
2018-06-29T01:30:35.300Z,101217.00
2018-06-29T01:33:05.434Z,101216.00
2018-06-29T01:35:35.301Z,101217.00
2018-06-29T01:38:05.683Z,101221.00
2018-06-29T01:40:35.709Z,101219.00
2018-06-29T01:43:05.804Z,101220.00
2018-06-29T01:45:35.685Z,101218.00
2018-06-29T01:48:06.218Z,101217.00
2018-06-29T01:50:37.443Z,101216.00
2018-06-29T01:53:08.376Z,101220.00
2018-06-29T01:55:39.661Z,101219.00
2018-06-29T01:58:10.435Z,101214.00
2018-06-29T02:00:41.659Z,101210.00
2018-06-29T02:03:12.511Z,101211.00
2018-06-29T02:05:42.871Z,101211.00
2018-06-29T02:08:13.212Z,101209.00
2018-06-29T02:10:43.195Z,101201.00
2018-06-29T02:13:13.425Z,101205.00
2018-06-29T02:15:43.609Z,101211.00
2018-06-29T02:18:13.756Z,101204.00
2018-06-29T02:20:44.023Z,101204.00
2018-06-29T02:23:14.159Z,101204.00
2018-06-29T02:25:44.536Z,101207.00
2018-06-29T02:28:14.746Z,101204.00
2018-06-29T02:30:44.856Z,101203.00
2018-06-29T02:33:15.098Z,101196.00
2018-06-29T02:35:45.303Z,101209.00
2018-06-29T02:38:15.090Z,101206.00
2018-06-29T02:40:45.131Z,101200.00
2018-06-29T02:43:15.318Z,101204.00
2018-06-29T02:45:45.268Z,101210.00
2018-06-29T02:48:15.311Z,101214.00
2018-06-29T02:50:45.289Z,101214.00
2018-06-29T02:53:15.331Z,101216.00
2018-06-29T02:55:45.362Z,101205.00
2018-06-29T02:58:15.385Z,101208.00
2018-06-29T03:00:45.568Z,101211.00
2018-06-29T03:03:15.530Z,101207.00
2018-06-29T03:05:45.534Z,101208.00
2018-06-29T03:08:15.801Z,101206.00
2018-06-29T03:10:45.978Z,101207.00
2018-06-29T03:13:16.184Z,101203.00
2018-06-29T03:15:46.294Z,101209.00
2018-06-29T03:18:16.118Z,101209.00
2018-06-29T03:20:45.940Z,101208.00
2018-06-29T03:23:17.071Z,101209.00
2018-06-29T03:25:48.051Z,101215.00
2018-06-29T03:28:19.185Z,101214.00
2018-06-29T03:30:50.068Z,101214.00
2018-06-29T03:33:20.549Z,101210.00
2018-06-29T03:35:50.639Z,101211.00
2018-06-29T03:38:21.109Z,101212.00
2018-06-29T03:40:50.567Z,101213.00
2018-06-29T03:43:20.724Z,101204.00
2018-06-29T03:45:50.918Z,101206.00
2018-06-29T03:48:20.960Z,101207.00
2018-06-29T03:50:51.034Z,101211.00
2018-06-29T03:53:21.266Z,101207.00
2018-06-29T03:55:51.189Z,101205.00
2018-06-29T03:58:21.288Z,101208.00
2018-06-29T04:00:51.475Z,101204.00
2018-06-29T04:03:21.807Z,101205.00
2018-06-29T04:05:53.175Z,101203.00
2018-06-29T04:08:23.300Z,101204.00
2018-06-29T04:10:53.670Z,101200.00
2018-06-29T04:13:23.778Z,101207.00
2018-06-29T04:15:53.929Z,101210.00
2018-06-29T04:18:24.060Z,101205.00
2018-06-29T04:20:54.236Z,101200.00
2018-06-29T04:23:24.779Z,101202.00
2018-06-29T04:25:55.725Z,101194.00
2018-06-29T04:28:26.120Z,101196.00
2018-06-29T04:30:56.253Z,101198.00
2018-06-29T04:33:26.541Z,101201.00
2018-06-29T04:35:56.649Z,101202.00
2018-06-29T04:38:26.858Z,101205.00
2018-06-29T04:40:57.070Z,101198.00
2018-06-29T04:43:27.070Z,101193.00
2018-06-29T04:45:57.050Z,101195.00
2018-06-29T04:48:27.135Z,101190.00
2018-06-29T04:50:56.914Z,101188.00
2018-06-29T04:53:27.581Z,101188.00
2018-06-29T04:55:58.097Z,101202.00
2018-06-29T04:58:28.274Z,101200.00
2018-06-29T05:00:58.678Z,101203.00
2018-06-29T05:03:28.826Z,101201.00
2018-06-29T05:05:58.878Z,101204.00
2018-06-29T05:08:29.035Z,101207.00
2018-06-29T05:10:59.200Z,101215.00
2018-06-29T05:13:29.519Z,101212.00
2018-06-29T05:15:59.741Z,101209.00
2018-06-29T05:18:29.855Z,101210.00
2018-06-29T05:21:00.044Z,101206.00
2018-06-29T05:23:29.979Z,101210.00
2018-06-29T05:26:00.515Z,101216.00
2018-06-29T05:28:30.705Z,101214.00
2018-06-29T05:31:01.761Z,101212.00
2018-06-29T05:33:32.089Z,101217.00
2018-06-29T05:36:02.330Z,101210.00
2018-06-29T05:38:32.504Z,101212.00
2018-06-29T05:41:03.035Z,101207.00
2018-06-29T05:43:34.166Z,101214.00
2018-06-29T05:46:04.249Z,101209.00
2018-06-29T05:48:34.346Z,101210.00
2018-06-29T05:51:04.490Z,101211.00
2018-06-29T05:53:34.609Z,101213.00
2018-06-29T05:56:04.855Z,101210.00
2018-06-29T05:58:34.987Z,101210.00
2018-06-29T06:01:08.296Z,101208.00
2018-06-29T06:03:38.698Z,101207.00
2018-06-29T06:06:09.445Z,101198.00
2018-06-29T06:08:39.620Z,101203.00
2018-06-29T06:11:09.881Z,101203.00
2018-06-29T06:13:40.049Z,101201.00
2018-06-29T06:16:10.046Z,101201.00
2018-06-29T06:18:40.111Z,101201.00
2018-06-29T06:21:10.585Z,101197.00
2018-06-29T06:23:40.856Z,101199.00
2018-06-29T06:26:11.250Z,101202.00
2018-06-29T06:28:41.527Z,101196.00
2018-06-29T06:40:31.401Z,101200.00
2018-06-29T06:43:18.522Z,101210.00
2018-06-29T06:45:49.647Z,101211.00
2018-06-29T06:48:19.293Z,101200.00
2018-06-29T06:50:49.572Z,101199.00
2018-06-29T06:53:19.829Z,101196.00
2018-06-29T06:55:50.397Z,101202.00
2018-06-29T06:58:20.947Z,101197.00
2018-06-29T07:00:51.621Z,101188.00
2018-06-29T07:03:21.649Z,101191.00
2018-06-29T07:05:51.676Z,101197.00
2018-06-29T07:08:22.127Z,101195.00
2018-06-29T07:10:52.236Z,101194.00
2018-06-29T07:13:22.365Z,101189.00
2018-06-29T07:15:52.633Z,101190.00
2018-06-29T07:18:22.843Z,101188.00
2018-06-29T07:20:53.021Z,101187.00
2018-06-29T07:23:23.117Z,101183.00
2018-06-29T07:25:53.445Z,101180.00
2018-06-29T07:28:23.753Z,101180.00
2018-06-29T07:30:53.906Z,101184.00
2018-06-29T07:33:24.040Z,101182.00
2018-06-29T07:35:54.059Z,101178.00
2018-06-29T07:38:24.215Z,101171.00
2018-06-29T07:40:54.551Z,101161.00
2018-06-29T07:43:24.640Z,101157.00
2018-06-29T07:45:54.978Z,101159.00
2018-06-29T07:48:25.056Z,101156.00
2018-06-29T07:50:54.925Z,101149.00
2018-06-29T07:53:25.107Z,101145.00
2018-06-29T07:55:55.630Z,101142.00
2018-06-29T07:58:25.981Z,101145.00
2018-06-29T08:01:02.472Z,101149.00
2018-06-29T08:03:35.362Z,101148.00
2018-06-29T08:06:05.486Z,101146.00
2018-06-29T08:08:35.459Z,101147.00
2018-06-29T08:11:05.585Z,101145.00
2018-06-29T08:13:35.736Z,101144.00
2018-06-29T08:16:06.106Z,101143.00
2018-06-29T08:18:36.256Z,101138.00
2018-06-29T08:21:06.526Z,101134.00
2018-06-29T08:23:36.971Z,101132.00
2018-06-29T08:26:23.365Z,101128.00
2018-06-29T08:28:53.604Z,101125.00
2018-06-29T08:31:23.748Z,101124.00
2018-06-29T08:33:53.953Z,101122.00
2018-06-29T08:36:24.245Z,101118.00
2018-06-29T08:38:54.436Z,101118.00
2018-06-29T08:41:24.547Z,101117.00
2018-06-29T08:43:54.635Z,101114.00
2018-06-29T08:46:24.805Z,101115.00
2018-06-29T08:48:55.125Z,101112.00
2018-06-29T08:51:25.331Z,101108.00
2018-06-29T08:53:55.616Z,101112.00
2018-06-29T08:56:26.244Z,101109.00
2018-06-29T08:58:57.009Z,101113.00
2018-06-29T09:01:27.306Z,101104.00
2018-06-29T09:03:57.356Z,101104.00
2018-06-29T09:06:27.496Z,101104.00
2018-06-29T09:08:57.832Z,101101.00
2018-06-29T09:11:28.090Z,101097.00
2018-06-29T09:13:58.193Z,101095.00
2018-06-29T09:16:28.385Z,101103.00
2018-06-29T09:18:58.581Z,101098.00
2018-06-29T09:21:29.460Z,101097.00
2018-06-29T09:24:00.385Z,101086.00
2018-06-29T09:26:31.172Z,101079.00
2018-06-29T09:29:02.411Z,101082.00
2018-06-29T09:31:33.315Z,101084.00
2018-06-29T09:40:31.213Z,101079.00
2018-06-29T09:43:01.321Z,101074.00
2018-06-29T09:45:31.592Z,101069.00
2018-06-29T09:48:02.376Z,101071.00
2018-06-29T09:50:32.507Z,101069.00
2018-06-29T09:53:02.678Z,101061.00
2018-06-29T09:55:32.874Z,101062.00
2018-06-29T09:58:03.172Z,101064.00
2018-06-29T10:00:33.696Z,101063.00
2018-06-29T10:03:04.246Z,101055.00
2018-06-29T10:05:34.791Z,101051.00
2018-06-29T10:08:04.971Z,101047.00
2018-06-29T10:10:35.140Z,101052.00
2018-06-29T10:13:05.117Z,101045.00
2018-06-29T10:15:35.443Z,101044.00
2018-06-29T10:18:05.546Z,101042.00
2018-06-29T10:20:35.742Z,101040.00
2018-06-29T10:23:06.338Z,101040.00
2018-06-29T10:25:36.713Z,101036.00
2018-06-29T10:28:07.390Z,101034.00
2018-06-29T10:30:37.559Z,101036.00
2018-06-29T10:33:07.683Z,101014.00
2018-06-29T10:35:38.062Z,101035.00
2018-06-29T10:38:08.341Z,101037.00
2018-06-29T10:40:38.523Z,101034.00
2018-06-29T10:43:08.594Z,101025.00
2018-06-29T10:45:38.721Z,101027.00
2018-06-29T10:48:08.852Z,101023.00
2018-06-29T10:50:39.171Z,101027.00
2018-06-29T10:53:10.408Z,101031.00
2018-06-29T11:00:31.161Z,101021.00
2018-06-29T11:03:01.349Z,100998.00
2018-06-29T11:05:31.620Z,100997.00
2018-06-29T11:08:01.778Z,100997.00
2018-06-29T11:10:32.041Z,100990.00
2018-06-29T11:13:02.302Z,100987.00
2018-06-29T11:15:32.618Z,100987.00
2018-06-29T11:18:02.789Z,100990.00
2018-06-29T11:20:33.072Z,100981.00
2018-06-29T11:23:03.223Z,100983.00
2018-06-29T11:25:33.371Z,100983.00
2018-06-29T11:28:03.564Z,100975.00
2018-06-29T11:30:33.649Z,100969.00
2018-06-29T11:33:03.669Z,100968.00
2018-06-29T11:35:34.102Z,100963.00
2018-06-29T11:38:04.397Z,100964.00
2018-06-29T11:40:34.557Z,100968.00
2018-06-29T11:43:04.639Z,100969.00
2018-06-29T11:45:34.688Z,100965.00
2018-06-29T11:48:05.242Z,100969.00
2018-06-29T11:50:35.988Z,100960.00
2018-06-29T11:53:07.230Z,100956.00
2018-06-29T11:55:38.378Z,100948.00
2018-06-29T11:58:09.395Z,100949.00
2018-06-29T12:00:40.879Z,100944.00
2018-06-29T12:03:11.868Z,100934.00
2018-06-29T12:05:42.114Z,100934.00
2018-06-29T12:08:12.284Z,100936.00
2018-06-29T12:10:41.777Z,100929.00
2018-06-29T12:13:11.987Z,100930.00
2018-06-29T12:15:42.178Z,100930.00
2018-06-29T12:18:12.421Z,100927.00
2018-06-29T12:20:42.581Z,100924.00
2018-06-29T12:23:12.634Z,100929.00
2018-06-29T12:25:43.049Z,100916.00
2018-06-29T12:28:13.053Z,100915.00
2018-06-29T12:30:43.357Z,100917.00
2018-06-29T12:33:13.361Z,100915.00
2018-06-29T12:35:43.590Z,100902.00
2018-06-29T12:38:13.772Z,100904.00
2018-06-29T12:40:44.163Z,100911.00
2018-06-29T12:43:14.694Z,100908.00
2018-06-29T12:45:44.720Z,100899.00
2018-06-29T12:48:14.962Z,100900.00
2018-06-29T12:50:45.253Z,100892.00
2018-06-29T12:53:15.292Z,100892.00
2018-06-29T12:55:45.510Z,100887.00
2018-06-29T12:58:15.549Z,100881.00
2018-06-29T13:00:45.393Z,100883.00
2018-06-29T13:03:15.729Z,100875.00
2018-06-29T13:05:46.044Z,100875.00
2018-06-29T13:08:16.317Z,100867.00
2018-06-29T13:10:46.497Z,100867.00
2018-06-29T13:13:16.573Z,100862.00
2018-06-29T13:15:47.148Z,100841.00
2018-06-29T13:18:18.293Z,100854.00
2018-06-29T13:30:32.404Z,100857.00
2018-06-29T13:33:02.758Z,100845.00
2018-06-29T13:35:33.692Z,100838.00
2018-06-29T13:38:03.884Z,100838.00
2018-06-29T13:40:34.072Z,100835.00
2018-06-29T13:43:04.644Z,100838.00
2018-06-29T13:45:35.318Z,100835.00
2018-06-29T13:48:05.655Z,100830.00
2018-06-29T13:50:36.277Z,100834.00
2018-06-29T13:53:06.904Z,100826.00
2018-06-29T13:55:37.203Z,100833.00
2018-06-29T13:58:07.421Z,100831.00
2018-06-29T14:00:37.618Z,100825.00
2018-06-29T14:03:07.941Z,100820.00
2018-06-29T14:05:38.284Z,100821.00
2018-06-29T14:08:08.192Z,100823.00
2018-06-29T14:10:38.379Z,100815.00
2018-06-29T14:13:08.596Z,100814.00
2018-06-29T14:15:38.789Z,100815.00
2018-06-29T14:18:08.852Z,100805.00
2018-06-29T14:20:39.956Z,100808.00
2018-06-29T14:23:11.105Z,100800.00
2018-06-29T14:25:42.346Z,100798.00
2018-06-29T14:28:13.416Z,100801.00
2018-06-29T14:30:44.455Z,100799.00
2018-06-29T14:33:15.697Z,100796.00
2018-06-29T14:35:46.703Z,100796.00
2018-06-29T14:38:17.647Z,100794.00
2018-06-29T14:40:49.208Z,100796.00
2018-06-29T14:43:19.874Z,100793.00
2018-06-29T14:45:50.561Z,100795.00
2018-06-29T14:48:20.386Z,100793.00
2018-06-29T14:50:50.994Z,100791.00
2018-06-29T14:53:21.314Z,100779.00
2018-06-29T14:55:51.779Z,100788.00
2018-06-29T14:58:22.657Z,100785.00
2018-06-29T15:00:52.912Z,100784.00
2018-06-29T15:03:23.667Z,100780.00
2018-06-29T15:05:54.331Z,100758.00
2018-06-29T15:08:24.376Z,100772.00
2018-06-29T15:10:54.641Z,100772.00
2018-06-29T15:13:25.033Z,100768.00
2018-06-29T15:15:55.051Z,100765.00
2018-06-29T15:18:25.423Z,100764.00
2018-06-29T15:20:55.598Z,100762.00
2018-06-29T15:23:25.785Z,100757.00
2018-06-29T15:25:55.998Z,100761.00
2018-06-29T15:28:26.345Z,100765.00
2018-06-29T15:30:57.048Z,100761.00
2018-06-29T15:33:27.542Z,100760.00
2018-06-29T15:35:57.792Z,100753.00
2018-06-29T15:38:27.838Z,100751.00
2018-06-29T15:40:58.019Z,100752.00
2018-06-29T15:43:28.124Z,100752.00
2018-06-29T15:45:58.327Z,100746.00
2018-06-29T15:48:28.541Z,100752.00
2018-06-29T15:50:58.898Z,100748.00
2018-06-29T15:53:30.587Z,100749.00
2018-06-29T15:56:01.850Z,100747.00
2018-06-29T15:58:32.082Z,100742.00
2018-06-29T16:01:02.285Z,100735.00
2018-06-29T16:03:32.692Z,100731.00
2018-06-29T16:06:03.559Z,100735.00
2018-06-29T16:08:34.894Z,100737.00
2018-06-29T16:11:06.054Z,100735.00
2018-06-29T16:13:37.168Z,100729.00
2018-06-29T16:16:07.639Z,100725.00
2018-06-29T16:18:38.704Z,100722.00
2018-06-29T16:21:09.648Z,100720.00
2018-06-29T16:23:40.102Z,100718.00
2018-06-29T16:26:10.655Z,100718.00
2018-06-29T16:28:41.548Z,100712.00
2018-06-29T16:31:11.688Z,100713.00
2018-06-29T16:33:41.960Z,100713.00
2018-06-29T16:36:12.022Z,100711.00
2018-06-29T16:38:42.270Z,100709.00
2018-06-29T16:41:12.512Z,100706.00
2018-06-29T16:43:42.356Z,100708.00
2018-06-29T16:46:12.660Z,100713.00
2018-06-29T16:48:42.960Z,100714.00
2018-06-29T16:51:13.213Z,100707.00
2018-06-29T16:53:43.333Z,100711.00
2018-06-29T16:56:13.545Z,100723.00
2018-06-29T16:58:43.837Z,100712.00
2018-06-29T17:01:14.065Z,100712.00
2018-06-29T17:03:44.572Z,100709.00
2018-06-29T17:06:14.840Z,100706.00
2018-06-29T17:08:45.391Z,100707.00
2018-06-29T17:11:15.633Z,100708.00
2018-06-29T17:13:46.423Z,100703.00
2018-06-29T17:16:16.957Z,100702.00
2018-06-29T17:18:47.411Z,100704.00
2018-06-29T17:21:17.633Z,100704.00
2018-06-29T17:23:47.804Z,100702.00
2018-06-29T17:26:18.067Z,100705.00
2018-06-29T17:28:48.351Z,100704.00
2018-06-29T17:31:18.428Z,100707.00
2018-06-29T17:33:49.692Z,100706.00
2018-06-29T17:36:19.668Z,100707.00
2018-06-29T17:38:49.846Z,100703.00
2018-06-29T17:41:20.183Z,100706.00
2018-06-29T17:43:50.423Z,100700.00
2018-06-29T17:46:20.358Z,100703.00
2018-06-29T17:48:50.502Z,100699.00
2018-06-29T18:00:30.891Z,100698.00
2018-06-29T18:03:01.194Z,100704.00
2018-06-29T18:05:32.165Z,100703.00
2018-06-29T18:08:02.768Z,100699.00
2018-06-29T18:10:32.879Z,100700.00
2018-06-29T18:13:03.055Z,100700.00
2018-06-29T18:20:31.325Z,100703.00
2018-06-29T18:23:01.741Z,100695.00
2018-06-29T18:25:31.952Z,100699.00
2018-06-29T18:28:02.156Z,100697.00
2018-06-29T18:30:32.310Z,100700.00
2018-06-29T18:33:02.604Z,100701.00
2018-06-29T18:35:33.070Z,100705.00
2018-06-29T18:38:03.799Z,100705.00
2018-06-29T18:40:34.377Z,100703.00
2018-06-29T18:43:05.274Z,100709.00
2018-06-29T18:45:36.226Z,100714.00
2018-06-29T18:48:06.813Z,100715.00
2018-06-29T18:50:37.499Z,100724.00
2018-06-29T18:53:08.034Z,100732.00
2018-06-29T18:55:38.414Z,100732.00
2018-06-29T18:58:08.784Z,100728.00
2018-06-29T19:00:38.981Z,100734.00
2018-06-29T19:03:09.468Z,100735.00
2018-06-29T19:05:39.873Z,100742.00
2018-06-29T19:08:10.193Z,100748.00
2018-06-29T19:10:40.529Z,100754.00
2018-06-29T19:13:10.727Z,100749.00
2018-06-29T19:15:41.040Z,100752.00
2018-06-29T19:18:11.767Z,100757.00
2018-06-29T19:20:42.193Z,100752.00
2018-06-29T19:23:12.313Z,100759.00
2018-06-29T19:25:42.533Z,100758.00
2018-06-29T19:28:12.673Z,100761.00
2018-06-29T19:30:42.779Z,100764.00
2018-06-29T19:33:13.877Z,100765.00
2018-06-29T19:35:44.548Z,100768.00
2018-06-29T19:38:15.192Z,100765.00
2018-06-29T19:40:45.799Z,100770.00
2018-06-29T19:43:16.161Z,100770.00
2018-06-29T19:45:47.047Z,100776.00
2018-06-29T19:48:17.327Z,100777.00
2018-06-29T19:50:48.233Z,100789.00
2018-06-29T19:53:18.687Z,100790.00
2018-06-29T19:55:49.071Z,100791.00
2018-06-29T19:58:19.408Z,100794.00
2018-06-29T20:00:50.129Z,100791.00
2018-06-29T20:03:20.662Z,100795.00
2018-06-29T20:05:51.114Z,100798.00
2018-06-29T20:08:21.414Z,100795.00
2018-06-29T20:10:51.831Z,100798.00
2018-06-29T20:13:22.040Z,100802.00
2018-06-29T20:15:52.264Z,100799.00
2018-06-29T20:18:22.549Z,100797.00
2018-06-29T20:20:52.765Z,100801.00
2018-06-29T20:23:22.838Z,100802.00
2018-06-29T20:25:52.983Z,100808.00
2018-06-29T20:28:23.201Z,100809.00
2018-06-29T20:30:54.045Z,100805.00
2018-06-29T20:33:24.558Z,100812.00
2018-06-29T20:35:55.055Z,100808.00
2018-06-29T20:38:25.469Z,100806.00
2018-06-29T20:40:55.895Z,100808.00
2018-06-29T20:43:26.270Z,100813.00
2018-06-29T20:45:56.513Z,100809.00
2018-06-29T20:48:26.617Z,100817.00
2018-06-29T20:50:56.881Z,100818.00
2018-06-29T20:53:27.172Z,100819.00
2018-06-29T20:55:57.383Z,100819.00
2018-06-29T20:58:27.763Z,100823.00
2018-06-29T21:00:57.919Z,100821.00
2018-06-29T21:03:28.284Z,100828.00
2018-06-29T21:05:58.727Z,100825.00
2018-06-29T21:08:28.887Z,100827.00
2018-06-29T21:10:59.356Z,100825.00
2018-06-29T21:13:29.600Z,100822.00
2018-06-29T21:15:59.840Z,100825.00
2018-06-29T21:18:30.239Z,100826.00
2018-06-29T21:21:00.366Z,100825.00
2018-06-29T21:23:30.959Z,100829.00
2018-06-29T21:26:01.464Z,100829.00
2018-06-29T21:28:31.812Z,100834.00
2018-06-29T21:31:01.918Z,100835.00
2018-06-29T21:33:32.246Z,100836.00
2018-06-29T21:36:02.803Z,100831.00
2018-06-29T21:38:33.354Z,100838.00
2018-06-29T21:41:03.710Z,100844.00
2018-06-29T21:43:33.903Z,100840.00
2018-06-29T21:46:04.185Z,100842.00
2018-06-29T21:48:34.317Z,100839.00
2018-06-29T21:51:04.400Z,100838.00
2018-06-29T21:53:34.783Z,100836.00
2018-06-29T21:56:05.250Z,100845.00
2018-06-29T21:58:35.603Z,100836.00
2018-06-29T22:01:05.864Z,100840.00
2018-06-29T22:03:36.303Z,100839.00
2018-06-29T22:06:06.750Z,100839.00
2018-06-29T22:08:37.251Z,100837.00
2018-06-29T22:11:07.913Z,100836.00
2018-06-29T22:13:38.186Z,100835.00
2018-06-29T22:16:08.294Z,100839.00
2018-06-29T22:18:38.601Z,100842.00
2018-06-29T22:21:08.816Z,100845.00
2018-06-29T22:23:39.534Z,100850.00
2018-06-29T22:26:09.930Z,100848.00
2018-06-29T22:28:39.695Z,100849.00
2018-06-29T22:31:10.069Z,100850.00
2018-06-29T22:33:40.583Z,100852.00
2018-06-29T22:36:10.834Z,100848.00
2018-06-29T22:38:41.863Z,100847.00
2018-06-29T22:41:12.659Z,100851.00
2018-06-29T22:43:42.884Z,100850.00
2018-06-29T22:46:13.418Z,100852.00
2018-06-29T22:48:44.017Z,100855.00
2018-06-29T22:51:13.988Z,100858.00
2018-06-29T22:53:44.124Z,100853.00
2018-06-29T22:56:14.376Z,100861.00
2018-06-29T22:58:44.493Z,100857.00
2018-06-29T23:01:14.865Z,100856.00
2018-06-29T23:03:50.059Z,100860.00
2018-06-29T23:06:20.203Z,100860.00
2018-06-29T23:08:50.380Z,100858.00
2018-06-29T23:11:20.586Z,100850.00
2018-06-29T23:13:50.652Z,100851.00
2018-06-29T23:16:20.781Z,100852.00
2018-06-29T23:18:50.875Z,100852.00
2018-06-29T23:21:20.891Z,100847.00
2018-06-29T23:23:51.309Z,100853.00
2018-06-29T23:26:21.501Z,100855.00
2018-06-29T23:28:51.839Z,100850.00
2018-06-29T23:31:21.977Z,100850.00
2018-06-29T23:33:52.126Z,100847.00
2018-06-29T23:36:22.306Z,100852.00
2018-06-29T23:38:52.588Z,100849.00
2018-06-29T23:41:22.720Z,100850.00
2018-06-29T23:43:52.915Z,100847.00
2018-06-29T23:46:22.729Z,100845.00
2018-06-29T23:48:52.729Z,100849.00
2018-06-29T23:51:22.626Z,100854.00
2018-06-29T23:53:52.595Z,100849.00
2018-06-29T23:56:22.449Z,100848.00
2018-06-29T23:58:52.722Z,100847.00
